createdAt,value
2023-04-08T00:01:57.885Z,100120.66
2023-04-08T00:04:25.214Z,100116.31
2023-04-08T00:06:52.484Z,100124.78
2023-04-08T00:09:19.543Z,100116.94
2023-04-08T00:11:46.505Z,100113.84
2023-04-08T00:14:13.456Z,100109.28
2023-04-08T00:16:40.539Z,100114.66
2023-04-08T00:19:07.677Z,100119.59
2023-04-08T00:21:34.653Z,100115.25
2023-04-08T00:24:01.545Z,100115.25
2023-04-08T00:26:28.651Z,100117.94
2023-04-08T00:28:55.817Z,100110.09
2023-04-08T00:31:23.305Z,100120.00
2023-04-08T00:33:51.233Z,100118.56
2023-04-08T00:36:19.283Z,100115.88
2023-04-08T00:38:46.525Z,100113.38
2023-04-08T00:41:13.619Z,100112.97
2023-04-08T00:43:41.107Z,100115.66
2023-04-08T00:46:09.371Z,100108.84
2023-04-08T00:48:36.473Z,100113.81
2023-04-08T00:51:04.002Z,100113.59
2023-04-08T00:53:31.701Z,100108.44
2023-04-08T00:56:00.178Z,100111.13
2023-04-08T00:58:29.301Z,100108.44
2023-04-08T01:01:20.481Z,100111.53
2023-04-08T01:04:02.231Z,100116.28
2023-04-08T01:06:51.689Z,100118.34
2023-04-08T01:09:21.449Z,100119.56
2023-04-08T01:11:51.957Z,100115.41
2023-04-08T01:14:23.864Z,100120.16
2023-04-08T01:16:53.874Z,100111.69
2023-04-08T01:19:35.428Z,100112.09
2023-04-08T01:22:23.362Z,100115.63
2023-04-08T01:24:57.711Z,100114.16
2023-04-08T01:27:27.200Z,100115.00
2023-04-08T01:29:56.008Z,100114.16
2023-04-08T01:32:24.027Z,100114.56
2023-04-08T01:34:52.589Z,100111.66
2023-04-08T01:37:21.174Z,100110.22
2023-04-08T01:39:49.765Z,100113.53
2023-04-08T01:42:17.033Z,100117.84
2023-04-08T01:44:45.628Z,100112.88
2023-04-08T01:47:13.460Z,100117.59
2023-04-08T01:49:41.600Z,100114.72
2023-04-08T01:52:10.257Z,100105.22
2023-04-08T01:54:38.243Z,100118.00
2023-04-08T01:57:09.083Z,100115.53
2023-04-08T01:59:39.165Z,100107.69
2023-04-08T02:02:09.289Z,100107.47
2023-04-08T02:04:37.043Z,100117.56
2023-04-08T02:07:06.166Z,100117.56
2023-04-08T02:09:33.141Z,100121.50
2023-04-08T02:12:00.191Z,100118.38
2023-04-08T02:14:28.408Z,100118.38
2023-04-08T02:17:09.503Z,100130.97
2023-04-08T02:19:44.535Z,100119.63
2023-04-08T02:22:24.509Z,100126.41
2023-04-08T02:24:52.449Z,100114.19
2023-04-08T02:27:21.281Z,100117.47
2023-04-08T02:29:49.922Z,100117.47
2023-04-08T02:32:17.847Z,100125.94
2023-04-08T02:34:46.761Z,100128.59
2023-04-08T02:37:13.828Z,100122.81
2023-04-08T02:39:40.784Z,100126.53
2023-04-08T02:42:11.741Z,100132.28
2023-04-08T02:44:39.135Z,100129.81
2023-04-08T02:47:06.335Z,100128.97
2023-04-08T02:49:35.134Z,100128.16
2023-04-08T02:52:02.129Z,100125.44
2023-04-08T02:54:29.226Z,100129.38
2023-04-08T02:56:56.361Z,100133.72
2023-04-08T02:59:23.576Z,100135.38
2023-04-08T03:01:51.505Z,100140.53
2023-04-08T03:04:18.454Z,100132.50
2023-04-08T03:06:45.543Z,100130.44
2023-04-08T03:09:12.669Z,100135.59
2023-04-08T03:11:39.585Z,100135.19
2023-04-08T03:14:06.506Z,100134.16
2023-04-08T03:16:33.711Z,100136.25
2023-04-08T03:19:01.079Z,100131.91
2023-04-08T03:21:28.081Z,100138.53
2023-04-08T03:23:55.158Z,100143.06
2023-04-08T03:26:22.161Z,100145.34
2023-04-08T03:28:49.303Z,100141.28
2023-04-08T03:31:16.663Z,100141.28
2023-04-08T03:33:43.815Z,100134.06
2023-04-08T03:36:11.029Z,100142.94
2023-04-08T03:38:38.023Z,100146.06
2023-04-08T03:41:05.012Z,100138.63
2023-04-08T03:43:33.064Z,100133.28
2023-04-08T03:46:00.043Z,100140.31
2023-04-08T03:48:28.165Z,100144.91
2023-04-08T03:50:55.140Z,100144.50
2023-04-08T03:53:22.551Z,100145.13
2023-04-08T03:55:51.314Z,100145.34
2023-04-08T03:58:18.492Z,100140.81
2023-04-08T04:00:45.715Z,100143.53
2023-04-08T04:03:13.440Z,100147.06
2023-04-08T04:05:40.980Z,100149.94
2023-04-08T04:08:09.488Z,100158.00
2023-04-08T04:10:36.389Z,100161.13
2023-04-08T04:13:03.641Z,100156.59
2023-04-08T04:15:30.819Z,100153.09
2023-04-08T04:17:57.961Z,100156.81
2023-04-08T04:20:26.149Z,100155.16
2023-04-08T04:22:53.117Z,100156.19
2023-04-08T04:25:20.303Z,100149.19
2023-04-08T04:27:49.217Z,100151.03
2023-04-08T04:30:19.679Z,100151.66
2023-04-08T04:32:46.735Z,100152.69
2023-04-08T04:35:13.825Z,100154.97
2023-04-08T04:37:40.900Z,100160.53
2023-04-08T04:40:08.342Z,100163.41
2023-04-08T04:42:35.621Z,100164.66
2023-04-08T04:45:02.902Z,100162.16
2023-04-08T04:47:32.799Z,100165.69
2023-04-08T04:49:59.974Z,100162.34
2023-04-08T04:52:27.201Z,100169.38
2023-04-08T04:54:54.382Z,100170.16
2023-04-08T04:57:21.623Z,100159.59
2023-04-08T04:59:48.529Z,100163.13
2023-04-08T05:02:15.924Z,100166.63
2023-04-08T05:04:42.975Z,100157.72
2023-04-08T05:07:10.048Z,100167.63
2023-04-08T05:09:37.010Z,100174.88
2023-04-08T05:12:04.253Z,100168.00
2023-04-08T05:14:31.645Z,100176.47
2023-04-08T05:16:58.692Z,100180.78
2023-04-08T05:19:25.648Z,100179.09
2023-04-08T05:21:52.660Z,100178.44
2023-04-08T05:24:19.644Z,100182.78
2023-04-08T05:26:52.435Z,100189.56
2023-04-08T05:29:21.833Z,100179.41
2023-04-08T05:31:48.898Z,100188.25
2023-04-08T05:34:19.468Z,100193.97
2023-04-08T05:36:46.391Z,100188.09
2023-04-08T05:39:13.659Z,100193.84
2023-04-08T05:41:41.044Z,100192.31
2023-04-08T05:44:11.187Z,100199.69
2023-04-08T05:46:38.910Z,100196.50
2023-04-08T05:49:08.079Z,100201.16
2023-04-08T05:51:35.056Z,100191.34
2023-04-08T05:54:01.978Z,100190.09
2023-04-08T05:56:29.229Z,100198.50
2023-04-08T05:58:56.300Z,100197.84
2023-04-08T06:01:26.404Z,100191.78
2023-04-08T06:03:56.147Z,100186.91
2023-04-08T06:06:23.927Z,100193.69
2023-04-08T06:08:51.077Z,100188.41
2023-04-08T06:11:18.545Z,100191.03
2023-04-08T06:13:45.686Z,100194.25
2023-04-08T06:16:21.230Z,100190.06
2023-04-08T06:18:49.371Z,100185.66
2023-04-08T06:21:19.357Z,100193.88
2023-04-08T06:23:46.562Z,100177.75
2023-04-08T06:26:40.689Z,100183.53
2023-04-08T06:29:03.965Z,100202.97
2023-04-08T06:31:31.557Z,100199.44
2023-04-08T06:33:58.849Z,100191.22
2023-04-08T06:36:39.643Z,100178.88
2023-04-08T06:39:12.846Z,100193.44
2023-04-08T06:41:40.295Z,100192.75
2023-04-08T06:44:23.792Z,100196.88
2023-04-08T06:46:53.547Z,100186.75
2023-04-08T06:49:20.780Z,100200.78
2023-04-08T06:52:20.599Z,100188.00
2023-04-08T06:54:57.328Z,100188.91
2023-04-08T06:57:26.033Z,100205.47
2023-04-08T06:59:56.631Z,100200.75
2023-04-08T07:02:24.476Z,100196.31
2023-04-08T07:04:52.078Z,100190.78
2023-04-08T07:07:19.167Z,100191.19
2023-04-08T07:09:46.824Z,100183.91
2023-04-08T07:12:19.112Z,100198.03
2023-04-08T07:14:46.800Z,100192.72
2023-04-08T07:17:13.818Z,100196.38
2023-04-08T07:19:41.243Z,100192.53
2023-04-08T07:22:08.196Z,100189.81
2023-04-08T07:24:35.213Z,100179.47
2023-04-08T07:27:02.284Z,100194.31
2023-04-08T07:29:29.407Z,100187.69
2023-04-08T07:31:56.298Z,100185.09
2023-04-08T07:34:23.478Z,100186.28
2023-04-08T07:36:50.764Z,100183.91
2023-04-08T07:39:17.821Z,100182.41
2023-04-08T07:41:44.992Z,100186.28
2023-04-08T07:44:11.993Z,100183.91
2023-04-08T07:46:39.215Z,100190.50
2023-04-08T07:49:07.247Z,100192.25
2023-04-08T07:51:34.884Z,100187.84
2023-04-08T07:54:02.134Z,100181.06
2023-04-08T07:56:29.516Z,100190.44
2023-04-08T07:58:56.799Z,100184.19
2023-04-08T08:01:24.557Z,100197.94
2023-04-08T08:03:53.177Z,100186.09
2023-04-08T08:06:21.052Z,100184.31
2023-04-08T08:08:48.377Z,100189.34
2023-04-08T08:11:15.578Z,100180.25
2023-04-08T08:13:42.936Z,100187.25
2023-04-08T08:16:11.991Z,100181.25
2023-04-08T08:18:40.480Z,100180.44
2023-04-08T08:21:08.639Z,100183.97
2023-04-08T08:23:35.911Z,100177.81
2023-04-08T08:26:12.053Z,100174.72
2023-04-08T08:28:40.102Z,100176.78
2023-04-08T08:31:07.640Z,100172.50
2023-04-08T08:33:34.805Z,100169.38
2023-04-08T08:36:02.170Z,100174.31
2023-04-08T08:38:29.319Z,100176.09
2023-04-08T08:40:58.445Z,100170.78
2023-04-08T08:43:26.434Z,100159.34
2023-04-08T08:45:54.156Z,100163.47
2023-04-08T08:48:21.418Z,100163.22
2023-04-08T08:50:48.521Z,100156.38
2023-04-08T08:53:15.670Z,100156.94
2023-04-08T08:58:13.289Z,100155.63
2023-04-08T09:00:45.245Z,100165.16
2023-04-08T09:03:32.792Z,100157.66
2023-04-08T09:06:01.955Z,100158.56
2023-04-08T09:08:37.117Z,100166.56
2023-04-08T09:11:18.322Z,100156.56
2023-04-08T09:13:46.730Z,100159.91
2023-04-08T09:16:18.141Z,100158.09
2023-04-08T09:18:48.795Z,100148.53
2023-04-08T09:21:17.818Z,100169.16
2023-04-08T09:23:46.050Z,100156.63
2023-04-08T09:26:22.167Z,100154.84
2023-04-08T09:29:24.220Z,100157.22
2023-04-08T09:31:57.945Z,100146.13
2023-04-08T09:34:26.712Z,100150.50
2023-04-08T09:36:54.986Z,100154.34
2023-04-08T09:39:23.051Z,100154.66
2023-04-08T09:41:52.026Z,100144.31
2023-04-08T09:44:23.734Z,100144.84
2023-04-08T09:46:50.706Z,100143.19
2023-04-08T09:49:29.592Z,100149.16
2023-04-08T09:52:14.032Z,100152.06
2023-04-08T09:55:05.914Z,100155.88
2023-04-08T09:57:51.512Z,100156.44
2023-04-08T10:00:19.312Z,100146.94
2023-04-08T10:03:34.303Z,100140.53
2023-04-08T10:06:03.557Z,100139.28
2023-04-08T10:08:33.125Z,100150.00
2023-04-08T10:11:00.177Z,100145.50
2023-04-08T10:13:28.589Z,100132.75
2023-04-08T10:16:26.033Z,100139.91
2023-04-08T10:18:56.990Z,100146.78
2023-04-08T10:21:36.094Z,100147.72
2023-04-08T10:24:06.525Z,100139.84
2023-04-08T10:26:44.298Z,100140.47
2023-04-08T10:29:29.535Z,100143.84
2023-04-08T10:31:58.047Z,100142.00
2023-04-08T10:34:27.433Z,100141.19
2023-04-08T10:36:57.060Z,100140.69
2023-04-08T10:39:25.824Z,100138.78
2023-04-08T10:41:52.998Z,100129.88
2023-04-08T10:44:25.130Z,100135.91
2023-04-08T10:46:53.361Z,100130.44
2023-04-08T10:49:20.531Z,100127.19
2023-04-08T10:51:48.048Z,100121.78
2023-04-08T10:54:17.095Z,100118.28
2023-04-08T10:56:50.144Z,100118.59
2023-04-08T10:59:27.189Z,100101.44
2023-04-08T11:01:55.750Z,100110.50
2023-04-08T11:04:25.983Z,100103.41
2023-04-08T11:06:53.761Z,100108.91
2023-04-08T11:09:20.993Z,100097.47
2023-04-08T11:11:48.124Z,100090.13
2023-04-08T11:14:17.247Z,100090.41
2023-04-08T11:16:45.271Z,100086.59
2023-04-08T11:19:13.969Z,100084.69
2023-04-08T11:21:41.327Z,100075.16
2023-04-08T11:24:12.360Z,100074.88
2023-04-08T11:26:40.708Z,100082.22
2023-04-08T11:29:14.133Z,100082.22
2023-04-08T11:31:44.150Z,100089.34
2023-04-08T11:34:11.684Z,100084.69
2023-04-08T11:36:41.921Z,100079.19
2023-04-08T11:39:12.430Z,100080.56
2023-04-08T11:41:40.747Z,100067.97
2023-04-08T11:44:08.734Z,100077.56
2023-04-08T11:46:36.440Z,100077.25
2023-04-08T11:49:08.159Z,100076.69
2023-04-08T11:51:36.330Z,100073.44
2023-04-08T11:54:07.544Z,100067.97
2023-04-08T11:56:47.125Z,100070.44
2023-04-08T11:59:14.126Z,100064.44
2023-04-08T12:01:41.255Z,100062.22
2023-04-08T12:04:10.580Z,100057.28
2023-04-08T12:06:37.850Z,100059.59
2023-04-08T12:09:04.940Z,100052.38
2023-04-08T12:11:32.164Z,100056.50
2023-04-08T12:13:59.126Z,100061.47
2023-04-08T12:16:26.309Z,100051.81
2023-04-08T12:18:53.433Z,100055.22
2023-04-08T12:21:20.494Z,100041.09
2023-04-08T12:23:47.610Z,100062.09
2023-04-08T12:26:14.810Z,100055.78
2023-04-08T12:28:41.878Z,100045.56
2023-04-08T12:31:08.833Z,100046.75
2023-04-08T12:33:35.948Z,100030.00
2023-04-08T12:36:03.020Z,100044.78
2023-04-08T12:38:29.960Z,100045.69
2023-04-08T12:40:56.820Z,100036.06
2023-04-08T12:43:23.908Z,100034.19
2023-04-08T12:45:51.419Z,100033.63
2023-04-08T12:48:18.508Z,100033.47
2023-04-08T12:50:45.653Z,100034.31
2023-04-08T12:53:12.622Z,100024.03
2023-04-08T12:55:39.740Z,100027.94
2023-04-08T12:58:06.825Z,100019.97
2023-04-08T13:00:33.900Z,100017.69
2023-04-08T13:03:01.098Z,100014.44
2023-04-08T13:05:41.993Z,100013.91
2023-04-08T13:08:11.974Z,100010.38
2023-04-08T13:10:38.936Z,100014.59
2023-04-08T13:13:05.799Z,100012.84
2023-04-08T13:15:32.842Z,100017.81
2023-04-08T13:17:59.953Z,100013.63
2023-04-08T13:20:27.013Z,99997.38
2023-04-08T13:22:54.259Z,100005.34
2023-04-08T13:25:21.655Z,99999.50
2023-04-08T13:27:48.602Z,99996.22
2023-04-08T13:30:15.682Z,99998.38
2023-04-08T13:32:42.774Z,99995.44
2023-04-08T13:35:09.927Z,99984.06
2023-04-08T13:37:37.296Z,99991.69
2023-04-08T13:40:04.793Z,99985.97
2023-04-08T13:42:32.838Z,99991.00
2023-04-08T13:45:00.233Z,99984.28
2023-04-08T13:47:29.877Z,99987.56
2023-04-08T13:49:56.855Z,99992.00
2023-04-08T13:52:23.761Z,99988.41
2023-04-08T13:54:50.930Z,99974.91
2023-04-08T13:57:17.788Z,99976.75
2023-04-08T13:59:44.963Z,99979.91
2023-04-08T14:02:13.018Z,99970.16
2023-04-08T14:04:40.406Z,99974.63
2023-04-08T14:07:07.496Z,99967.88
2023-04-08T14:09:34.436Z,99961.91
2023-04-08T14:12:01.906Z,99967.16
2023-04-08T14:14:28.898Z,99966.81
2023-04-08T14:16:55.957Z,99965.50
2023-04-08T14:19:23.116Z,99963.41
2023-04-08T14:21:50.172Z,99964.03
2023-04-08T14:24:17.166Z,99965.41
2023-04-08T14:26:44.280Z,99972.78
2023-04-08T14:29:11.910Z,99967.13
2023-04-08T14:31:38.865Z,99966.31
2023-04-08T14:34:05.904Z,99965.09
2023-04-08T14:36:33.017Z,99964.22
2023-04-08T14:39:00.305Z,99955.63
2023-04-08T14:41:27.464Z,99966.44
2023-04-08T14:43:54.525Z,99970.63
2023-04-08T14:46:21.909Z,99962.34
2023-04-08T14:48:49.222Z,99959.28
2023-04-08T14:51:16.363Z,99959.69
2023-04-08T14:53:43.366Z,99967.22
2023-04-08T14:56:10.528Z,99962.06
2023-04-08T14:58:37.456Z,99956.22
2023-04-08T15:01:04.691Z,99961.69
2023-04-08T15:03:31.853Z,99957.44
2023-04-08T15:05:59.852Z,99955.34
2023-04-08T15:08:27.021Z,99955.88
2023-04-08T15:10:54.113Z,99948.91
2023-04-08T15:13:21.080Z,99954.88
2023-04-08T15:15:48.175Z,99947.50
2023-04-08T15:18:15.155Z,99941.81
2023-04-08T15:20:42.587Z,99944.75
2023-04-08T15:23:09.463Z,99954.22
2023-04-08T15:25:36.469Z,99941.81
2023-04-08T15:28:03.627Z,99952.09
2023-04-08T15:30:35.531Z,99956.25
2023-04-08T15:33:05.894Z,99950.25
2023-04-08T15:35:33.660Z,99954.66
2023-04-08T15:38:01.272Z,99955.06
2023-04-08T15:40:28.361Z,99953.06
2023-04-08T15:42:56.094Z,99945.56
2023-04-08T15:45:23.071Z,99953.84
2023-04-08T15:47:50.033Z,99948.06
2023-04-08T15:50:17.702Z,99951.75
2023-04-08T15:52:44.977Z,99955.69
2023-04-08T15:55:13.270Z,99955.31
2023-04-08T15:57:40.274Z,99960.53
2023-04-08T16:00:11.229Z,99958.94
2023-04-08T16:02:41.022Z,99959.88
2023-04-08T16:05:09.243Z,99963.88
2023-04-08T16:07:36.376Z,99963.47
2023-04-08T16:10:03.402Z,99958.13
2023-04-08T16:12:30.579Z,99963.97
2023-04-08T16:14:57.922Z,99965.91
2023-04-08T16:17:24.972Z,99963.22
2023-04-08T16:19:52.431Z,99960.47
2023-04-08T16:22:19.675Z,99960.44
2023-04-08T16:24:46.630Z,99969.94
2023-04-08T16:27:13.512Z,99966.03
2023-04-08T16:29:40.674Z,99969.81
2023-04-08T16:32:09.042Z,99965.09
2023-04-08T16:34:36.293Z,99964.75
2023-04-08T16:37:03.322Z,99972.28
2023-04-08T16:39:30.475Z,99975.75
2023-04-08T16:41:57.423Z,99969.91
2023-04-08T16:44:24.526Z,99980.44
2023-04-08T16:46:51.560Z,99981.47
2023-04-08T16:49:18.561Z,99987.88
2023-04-08T16:51:45.634Z,99983.19
2023-04-08T16:54:12.677Z,99985.56
2023-04-08T16:56:44.474Z,99990.63
2023-04-08T16:59:12.578Z,99988.38
2023-04-08T17:01:39.725Z,99993.19
2023-04-08T17:04:06.969Z,99990.91
2023-04-08T17:06:37.794Z,99994.88
2023-04-08T17:09:04.825Z,99995.91
2023-04-08T17:11:31.965Z,99992.56
2023-04-08T17:13:59.589Z,99997.94
2023-04-08T17:16:26.584Z,99998.13
2023-04-08T17:18:53.636Z,100001.59
2023-04-08T17:21:21.290Z,100000.72
2023-04-08T17:23:48.530Z,100001.72
2023-04-08T17:26:15.570Z,100003.31
2023-04-08T17:28:43.552Z,99998.28
2023-04-08T17:31:11.172Z,99996.66
2023-04-08T17:33:38.284Z,99995.25
2023-04-08T17:36:05.710Z,100005.25
2023-04-08T17:38:33.127Z,100004.09
2023-04-08T17:41:00.658Z,99996.97
2023-04-08T17:43:27.609Z,100001.25
2023-04-08T17:48:26.523Z,100003.78
2023-04-08T17:51:06.808Z,99999.38
2023-04-08T17:53:34.396Z,100005.81
2023-04-08T17:56:01.487Z,100006.28
2023-04-08T17:58:28.467Z,100008.69
2023-04-08T18:00:55.504Z,100000.69
2023-04-08T18:03:22.574Z,100001.19
2023-04-08T18:05:49.706Z,100001.13
2023-04-08T18:08:16.637Z,100007.84
2023-04-08T18:10:45.139Z,100007.53
2023-04-08T18:13:13.342Z,99997.44
2023-04-08T18:15:40.444Z,99998.13
2023-04-08T18:18:07.503Z,100005.94
2023-04-08T18:20:37.792Z,99999.63
2023-04-08T18:23:05.028Z,100008.25
2023-04-08T18:25:32.636Z,100000.84
2023-04-08T18:27:59.768Z,99992.84
2023-04-08T18:30:27.218Z,99995.00
2023-04-08T18:32:54.194Z,99989.22
2023-04-08T18:35:21.285Z,99993.72
2023-04-08T18:37:48.239Z,99995.28
2023-04-08T18:40:15.608Z,99988.72
2023-04-08T18:42:42.489Z,99995.44
2023-04-08T18:45:09.875Z,99997.22
2023-04-08T18:47:37.726Z,99994.44
2023-04-08T18:50:06.680Z,99999.03
2023-04-08T18:52:33.902Z,100000.56
2023-04-08T18:55:01.033Z,100003.75
2023-04-08T18:57:28.016Z,99995.03
2023-04-08T18:59:55.011Z,100002.59
2023-04-08T19:02:22.845Z,100002.00
2023-04-08T19:04:50.095Z,99997.31
2023-04-08T19:07:17.901Z,100002.97
2023-04-08T19:09:44.866Z,99995.59
2023-04-08T19:12:11.724Z,99992.31
2023-04-08T19:14:39.657Z,100003.38
2023-04-08T19:17:07.895Z,99997.38
2023-04-08T19:19:34.829Z,99999.72
2023-04-08T19:22:06.747Z,100001.25
2023-04-08T19:24:34.380Z,99999.03
2023-04-08T19:27:01.432Z,99995.16
2023-04-08T19:29:31.171Z,99995.88
2023-04-08T19:31:59.515Z,100004.50
2023-04-08T19:34:26.990Z,99997.31
2023-04-08T19:36:54.245Z,100003.78
2023-04-08T19:39:21.267Z,99998.84
2023-04-08T19:41:50.534Z,100000.97
2023-04-08T19:44:17.441Z,100001.44
2023-04-08T19:46:44.571Z,99996.50
2023-04-08T19:49:12.075Z,100001.56
2023-04-08T19:51:39.003Z,99996.88
2023-04-08T19:54:05.898Z,100003.59
2023-04-08T19:56:34.155Z,100005.94
2023-04-08T19:59:02.066Z,100002.03
2023-04-08T20:01:29.523Z,100008.75
2023-04-08T20:03:56.596Z,100011.47
2023-04-08T20:06:23.556Z,100008.16
2023-04-08T20:08:52.897Z,100015.94
2023-04-08T20:11:20.590Z,100009.94
2023-04-08T20:13:51.588Z,100013.47
2023-04-08T20:16:18.633Z,100015.59
2023-04-08T20:18:45.605Z,100024.75
2023-04-08T20:21:14.086Z,100018.53
2023-04-08T20:23:44.464Z,100019.81
2023-04-08T20:26:12.903Z,100016.28
2023-04-08T20:28:40.938Z,100015.72
2023-04-08T20:31:09.314Z,100021.34
2023-04-08T20:33:38.351Z,100019.94
2023-04-08T20:36:05.620Z,100016.41
2023-04-08T20:38:35.438Z,100022.06
2023-04-08T20:41:02.712Z,100026.66
2023-04-08T20:43:29.679Z,100020.41
2023-04-08T20:45:56.622Z,100021.72
2023-04-08T20:48:23.815Z,100016.75
2023-04-08T20:50:51.159Z,100011.56
2023-04-08T20:53:19.615Z,100015.56
2023-04-08T20:55:46.701Z,100022.03
2023-04-08T20:58:13.705Z,100015.22
2023-04-08T21:00:40.565Z,100014.63
2023-04-08T21:03:07.751Z,100019.22
2023-04-08T21:05:38.117Z,100005.22
2023-04-08T21:08:06.184Z,100013.31
2023-04-08T21:10:33.239Z,100019.78
2023-04-08T21:13:01.220Z,100020.84
2023-04-08T21:15:28.263Z,100022.97
2023-04-08T21:17:55.333Z,100016.34
2023-04-08T21:20:22.308Z,100016.34
2023-04-08T21:22:49.302Z,100016.81
2023-04-08T21:25:18.082Z,100016.19
2023-04-08T21:27:45.011Z,100008.44
2023-04-08T21:30:12.236Z,100023.13
2023-04-08T21:32:39.127Z,100016.88
2023-04-08T21:35:06.386Z,100004.91
2023-04-08T21:37:34.658Z,100011.13
2023-04-08T21:40:01.621Z,100020.06
2023-04-08T21:42:30.419Z,100008.66
2023-04-08T21:44:57.675Z,100017.22
2023-04-08T21:47:24.588Z,100018.28
2023-04-08T21:49:51.689Z,100017.69
2023-04-08T21:52:18.602Z,100013.13
2023-04-08T21:54:50.033Z,100018.75
2023-04-08T21:57:17.057Z,100018.16
2023-04-08T21:59:44.223Z,100024.63
2023-04-08T22:02:11.823Z,100027.31
2023-04-08T22:04:38.997Z,100020.50
2023-04-08T22:07:06.405Z,100024.22
2023-04-08T22:09:33.290Z,100028.22
2023-04-08T22:12:01.655Z,100027.03
2023-04-08T22:14:28.548Z,100033.50
2023-04-08T22:16:55.542Z,100030.19
2023-04-08T22:19:22.490Z,100027.50
2023-04-08T22:21:51.257Z,100020.09
2023-04-08T22:24:21.456Z,100025.94
2023-04-08T22:26:48.500Z,100027.59
2023-04-08T22:29:15.736Z,100030.75
2023-04-08T22:31:42.803Z,100027.47
2023-04-08T22:34:09.891Z,100024.63
2023-04-08T22:36:36.880Z,100028.50
2023-04-08T22:39:04.041Z,100024.16
2023-04-08T22:41:31.348Z,100020.66
2023-04-08T22:43:58.348Z,100024.63
2023-04-08T22:46:25.636Z,100024.41
2023-04-08T22:48:52.823Z,100019.47
2023-04-08T22:51:20.055Z,100025.69
2023-04-08T22:53:47.065Z,100030.03
2023-04-08T22:56:14.325Z,100022.16
2023-04-08T22:58:41.368Z,100027.75
2023-04-08T23:01:14.224Z,100032.78
2023-04-08T23:03:41.945Z,100033.63
2023-04-08T23:06:09.442Z,100033.25
2023-04-08T23:08:36.466Z,100024.56
2023-04-08T23:11:03.378Z,100022.31
2023-04-08T23:13:30.598Z,100025.00
2023-04-08T23:15:57.753Z,100031.69
2023-04-08T23:18:25.531Z,100034.63
2023-04-08T23:20:56.815Z,100026.16
2023-04-08T23:23:24.905Z,100031.78
2023-04-08T23:25:54.926Z,100033.28
2023-04-08T23:28:22.930Z,100023.97
2023-04-08T23:30:49.907Z,100033.56
2023-04-08T23:33:16.974Z,100027.81
2023-04-08T23:35:44.223Z,100022.34
2023-04-08T23:38:11.189Z,100033.53
2023-04-08T23:40:38.235Z,100030.44
2023-04-08T23:43:05.469Z,100037.72
2023-04-08T23:45:32.506Z,100035.03
2023-04-08T23:47:59.504Z,100037.94
2023-04-08T23:50:26.444Z,100030.91
2023-04-08T23:52:53.373Z,100031.50
2023-04-08T23:55:20.881Z,100034.56
2023-04-08T23:57:49.379Z,100021.31
